createdAt,value
2018-04-12T00:01:45.964Z,44.80
2018-04-12T00:04:14.203Z,47.00
2018-04-12T00:06:41.705Z,44.80
2018-04-12T00:09:09.198Z,50.13
2018-04-12T00:11:36.707Z,56.40
2018-04-12T00:14:04.941Z,56.43
2018-04-12T00:16:32.420Z,53.17
2018-04-12T00:18:59.904Z,49.17
2018-04-12T00:21:28.161Z,45.03
2018-04-12T00:23:55.664Z,46.40
2018-04-12T00:26:23.148Z,46.07
2018-04-12T00:28:50.656Z,49.10
2018-04-12T00:31:18.143Z,47.10
2018-04-12T00:33:45.668Z,44.93
2018-04-12T00:36:13.246Z,49.43
2018-04-12T00:38:40.773Z,48.93
2018-04-12T00:41:08.247Z,49.17
2018-04-12T00:43:35.737Z,50.70
2018-04-12T00:46:03.676Z,46.33
2018-04-12T00:48:31.149Z,47.00
2018-04-12T00:50:59.386Z,48.20
2018-04-12T00:53:38.701Z,48.90
2018-04-12T00:56:06.204Z,44.60
2018-04-12T00:58:33.676Z,43.83
2018-04-12T01:01:01.941Z,40.37
2018-04-12T01:03:30.199Z,43.43
2018-04-12T01:05:57.682Z,44.00
2018-04-12T01:08:27.319Z,42.33
2018-04-12T01:10:54.903Z,42.27
2018-04-12T01:13:22.390Z,47.10
2018-04-12T01:15:49.866Z,46.80
2018-04-12T01:18:17.350Z,45.30
2018-04-12T01:20:45.680Z,46.70
2018-04-12T01:23:13.214Z,49.73
2018-04-12T01:25:40.694Z,47.77
2018-04-12T01:28:08.165Z,47.20
2018-04-12T01:30:35.671Z,43.30
2018-04-12T01:33:16.086Z,46.40
2018-04-12T01:35:43.574Z,45.37
2018-04-12T01:38:11.814Z,49.40
2018-04-12T01:40:39.309Z,50.10
2018-04-12T01:43:07.555Z,51.30
2018-04-12T01:45:35.053Z,50.63
2018-04-12T01:48:03.301Z,44.00
2018-04-12T01:50:30.786Z,42.13
2018-04-12T01:52:59.014Z,45.87
2018-04-12T01:55:26.511Z,44.90
2018-04-12T01:57:54.745Z,43.80
2018-04-12T02:00:22.254Z,43.77
2018-04-12T02:02:50.535Z,45.30
2018-04-12T02:05:18.764Z,46.90
2018-04-12T02:07:46.353Z,46.20
2018-04-12T02:10:13.821Z,49.07
2018-04-12T02:12:41.411Z,47.67
2018-04-12T02:15:08.955Z,45.27
2018-04-12T02:17:37.215Z,45.03
2018-04-12T02:20:04.704Z,48.30
2018-04-12T02:22:32.185Z,45.97
2018-04-12T02:24:59.681Z,43.67
2018-04-12T02:27:27.189Z,45.20
2018-04-12T02:29:54.674Z,44.27
2018-04-12T02:32:22.157Z,46.83
2018-04-12T02:34:49.673Z,44.13
2018-04-12T02:37:17.129Z,45.37
2018-04-12T02:39:44.609Z,42.60
2018-04-12T02:42:12.869Z,40.80
2018-04-12T02:44:40.328Z,44.37
2018-04-12T02:47:07.797Z,41.73
2018-04-12T02:49:35.267Z,42.50
2018-04-12T02:52:02.735Z,44.67
2018-04-12T02:54:30.204Z,43.07
2018-04-12T02:56:57.694Z,39.97
2018-04-12T02:59:25.193Z,42.37
2018-04-12T03:01:52.686Z,43.33
2018-04-12T03:04:20.966Z,45.70
2018-04-12T03:06:48.428Z,40.50
2018-04-12T03:09:16.680Z,45.00
2018-04-12T03:11:44.154Z,41.00
2018-04-12T03:14:11.646Z,42.53
2018-04-12T03:16:39.121Z,39.30
2018-04-12T03:19:06.634Z,42.17
2018-04-12T03:21:34.114Z,40.77
2018-04-12T03:24:02.340Z,43.23
2018-04-12T03:26:29.841Z,39.00
2018-04-12T03:28:58.063Z,37.17
2018-04-12T03:31:25.578Z,40.73
2018-04-12T03:33:53.818Z,39.20
2018-04-12T03:36:21.312Z,41.60
2018-04-12T03:38:49.551Z,37.70
2018-04-12T03:41:17.044Z,41.67
2018-04-12T03:43:45.296Z,42.30
2018-04-12T03:46:12.793Z,39.40
2018-04-12T03:48:41.116Z,37.80
2018-04-12T03:51:09.315Z,40.80
2018-04-12T03:53:36.811Z,45.90
2018-04-12T03:56:04.288Z,44.73
2018-04-12T03:58:31.765Z,43.33
2018-04-12T04:00:59.238Z,39.90
2018-04-12T04:03:26.736Z,39.50
2018-04-12T04:05:55.005Z,41.60
2018-04-12T04:08:23.238Z,40.87
2018-04-12T04:10:50.719Z,37.93
2018-04-12T04:13:18.198Z,40.53
2018-04-12T04:19:00.564Z,38.10
2018-04-12T04:21:28.050Z,38.77
2018-04-12T04:23:55.567Z,38.37
2018-04-12T04:26:23.056Z,44.07
2018-04-12T04:28:50.536Z,41.27
2018-04-12T04:31:18.029Z,46.23
2018-04-12T04:33:45.522Z,51.07
2018-04-12T04:36:13.012Z,50.53
2018-04-12T04:38:40.821Z,45.23
2018-04-12T04:41:08.316Z,41.93
2018-04-12T04:43:35.800Z,43.87
2018-04-12T04:46:04.090Z,44.87
2018-04-12T04:48:32.361Z,45.57
2018-04-12T04:51:00.645Z,43.03
2018-04-12T04:53:29.977Z,42.30
2018-04-12T04:55:57.506Z,43.20
2018-04-12T04:58:25.791Z,44.90
2018-04-12T05:00:54.036Z,45.00
2018-04-12T05:03:21.567Z,46.27
2018-04-12T05:05:49.063Z,50.57
2018-04-12T05:08:16.563Z,51.13
2018-04-12T05:10:44.057Z,55.87
2018-04-12T05:13:11.534Z,61.03
2018-04-12T05:15:39.159Z,56.40
2018-04-12T05:18:06.513Z,57.47
2018-04-12T05:20:34.017Z,54.07
2018-04-12T05:23:01.489Z,51.50
2018-04-12T05:25:28.985Z,51.10
2018-04-12T05:27:56.476Z,46.63
2018-04-12T05:30:23.985Z,50.57
2018-04-12T05:32:52.284Z,51.70
2018-04-12T05:35:19.799Z,50.63
2018-04-12T05:37:47.377Z,51.70
2018-04-12T05:40:15.630Z,53.40
2018-04-12T05:42:43.118Z,62.60
2018-04-12T05:45:11.368Z,66.83
2018-04-12T05:47:38.859Z,67.63
2018-04-12T05:50:07.118Z,88.90
2018-04-12T05:52:34.596Z,155.13
2018-04-12T05:55:02.842Z,130.23
2018-04-12T05:57:30.318Z,139.33
2018-04-12T05:59:58.566Z,119.37
2018-04-12T06:02:26.870Z,126.97
2018-04-12T06:04:55.126Z,108.23
2018-04-12T06:07:22.681Z,176.63
2018-04-12T06:09:50.155Z,166.47
2018-04-12T06:12:17.638Z,149.73
2018-04-12T06:14:45.369Z,196.63
2018-04-12T06:17:12.881Z,186.37
2018-04-12T06:19:40.365Z,138.40
2018-04-12T06:22:08.634Z,169.73
2018-04-12T06:24:36.126Z,202.10
2018-04-12T06:27:03.618Z,165.37
2018-04-12T06:29:31.108Z,181.07
2018-04-12T06:31:58.791Z,207.97
2018-04-12T06:34:26.288Z,217.80
2018-04-12T06:36:54.563Z,242.37
2018-04-12T06:39:22.841Z,176.27
2018-04-12T06:41:51.139Z,117.37
2018-04-12T06:44:18.892Z,197.87
2018-04-12T06:46:46.432Z,188.87
2018-04-12T06:49:13.917Z,174.47
2018-04-12T06:51:41.401Z,237.33
2018-04-12T06:54:08.963Z,124.23
2018-04-12T06:56:37.240Z,100.07
2018-04-12T06:59:04.733Z,94.93
2018-04-12T07:01:32.255Z,88.80
2018-04-12T07:03:59.775Z,78.07
2018-04-12T07:06:28.141Z,106.13
2018-04-12T07:08:55.641Z,192.03
2018-04-12T07:11:23.117Z,117.43
2018-04-12T07:13:50.614Z,125.10
2018-04-12T07:16:18.239Z,80.37
2018-04-12T07:18:45.732Z,113.27
2018-04-12T07:21:13.217Z,167.30
2018-04-12T07:23:40.708Z,191.17
2018-04-12T07:26:08.284Z,383.23
2018-04-12T07:28:35.780Z,113.47
2018-04-12T07:31:04.219Z,123.37
2018-04-12T07:33:31.820Z,90.30
2018-04-12T07:35:59.300Z,135.63
2018-04-12T07:38:28.301Z,110.20
2018-04-12T07:40:55.802Z,168.77
2018-04-12T07:43:23.277Z,186.43
2018-04-12T07:45:50.764Z,124.17
2018-04-12T07:48:19.057Z,106.30
2018-04-12T07:50:46.556Z,117.20
2018-04-12T07:53:14.057Z,101.33
2018-04-12T07:55:41.577Z,125.03
2018-04-12T07:58:09.081Z,108.33
2018-04-12T08:00:37.329Z,106.23
2018-04-12T08:03:04.808Z,104.87
2018-04-12T08:05:33.069Z,103.27
2018-04-12T08:08:00.562Z,117.33
2018-04-12T08:10:28.876Z,122.80
2018-04-12T08:12:56.352Z,105.07
2018-04-12T08:15:23.916Z,116.13
2018-04-12T08:17:51.417Z,109.27
2018-04-12T08:20:18.949Z,122.90
2018-04-12T08:22:46.470Z,119.90
2018-04-12T08:25:13.954Z,119.23
2018-04-12T08:27:41.473Z,105.93
2018-04-12T08:30:08.975Z,103.43
2018-04-12T08:32:36.655Z,97.60
2018-04-12T08:35:04.159Z,91.70
2018-04-12T08:37:31.676Z,100.10
2018-04-12T08:39:59.917Z,90.97
2018-04-12T08:42:27.457Z,92.43
2018-04-12T08:44:54.949Z,90.53
2018-04-12T08:47:22.486Z,88.20
2018-04-12T08:49:49.999Z,99.20
2018-04-12T08:52:17.509Z,89.27
2018-04-12T08:54:45.127Z,86.40
2018-04-12T08:57:13.432Z,86.17
2018-04-12T08:59:41.687Z,87.97
2018-04-12T09:02:09.197Z,81.63
2018-04-12T09:04:36.736Z,86.80
2018-04-12T09:07:04.227Z,81.37
2018-04-12T09:09:31.736Z,84.37
2018-04-12T09:11:59.226Z,81.97
2018-04-12T09:14:26.758Z,83.10
2018-04-12T09:16:54.228Z,76.60
2018-04-12T09:19:21.721Z,76.70
2018-04-12T09:21:49.276Z,83.83
2018-04-12T09:24:16.776Z,76.97
2018-04-12T09:26:45.025Z,74.63
2018-04-12T09:29:12.502Z,79.10
2018-04-12T09:31:40.816Z,79.03
2018-04-12T09:34:08.320Z,74.00
2018-04-12T09:36:35.816Z,73.63
2018-04-12T09:39:03.351Z,73.87
2018-04-12T09:41:30.857Z,73.67
2018-04-12T09:43:58.366Z,69.20
2018-04-12T09:46:25.854Z,70.53
2018-04-12T09:48:53.354Z,65.30
2018-04-12T09:51:20.862Z,64.93
2018-04-12T09:53:49.113Z,69.87
2018-04-12T09:56:16.631Z,68.67
2018-04-12T09:58:44.174Z,69.10
2018-04-12T10:01:15.606Z,67.60
2018-04-12T10:03:43.886Z,65.30
2018-04-12T10:06:27.075Z,68.30
2018-04-12T10:09:00.432Z,66.10
2018-04-12T10:11:28.690Z,69.77
2018-04-12T10:13:56.949Z,68.13
2018-04-12T10:16:25.309Z,61.93
2018-04-12T10:18:52.790Z,59.30
2018-04-12T10:21:21.060Z,60.90
2018-04-12T10:23:49.531Z,61.23
2018-04-12T10:26:17.115Z,58.80
2018-04-12T10:28:45.376Z,58.30
2018-04-12T10:31:12.863Z,58.47
2018-04-12T10:33:40.353Z,57.90
2018-04-12T10:36:07.841Z,54.93
2018-04-12T10:38:35.316Z,56.70
2018-04-12T10:41:02.955Z,53.57
2018-04-12T10:43:30.581Z,51.60
2018-04-12T10:45:58.088Z,55.73
2018-04-12T10:48:25.589Z,52.90
2018-04-12T10:50:53.097Z,55.77
2018-04-12T10:53:20.601Z,57.67
2018-04-12T10:55:48.237Z,57.20
2018-04-12T10:58:15.725Z,58.50
2018-04-12T11:00:43.216Z,59.90
2018-04-12T11:03:11.571Z,59.80
2018-04-12T11:05:39.072Z,56.17
2018-04-12T11:08:06.578Z,59.40
2018-04-12T11:10:34.070Z,61.07
2018-04-12T11:13:21.134Z,58.90
2018-04-12T11:15:49.378Z,60.73
2018-04-12T11:18:16.916Z,70.13
2018-04-12T11:20:44.412Z,61.33
2018-04-12T11:23:11.998Z,58.30
2018-04-12T11:25:39.663Z,62.20
2018-04-12T11:28:07.227Z,59.63
2018-04-12T11:30:35.478Z,62.07
2018-04-12T11:33:02.986Z,58.30
2018-04-12T11:35:30.522Z,60.67
2018-04-12T11:37:58.830Z,58.73
2018-04-12T11:40:26.730Z,58.50
2018-04-12T11:42:54.870Z,61.37
2018-04-12T11:45:22.364Z,57.87
2018-04-12T11:47:53.235Z,56.43
2018-04-12T11:50:21.505Z,54.47
2018-04-12T11:52:49.817Z,55.53
2018-04-12T11:55:17.323Z,57.20
2018-04-12T11:57:44.803Z,58.63
2018-04-12T12:00:13.084Z,55.27
2018-04-12T12:02:41.338Z,54.90
2018-04-12T12:05:09.081Z,57.00
2018-04-12T12:07:36.613Z,58.70
2018-04-12T12:10:04.197Z,55.90
2018-04-12T12:12:31.695Z,53.50
2018-04-12T12:14:59.202Z,55.20
2018-04-12T12:17:26.977Z,55.50
2018-04-12T12:19:54.506Z,53.80
2018-04-12T12:22:22.079Z,55.87
2018-04-12T12:24:49.561Z,52.40
2018-04-12T12:27:17.056Z,58.70
2018-04-12T12:29:44.628Z,53.60
2018-04-12T12:32:12.905Z,57.10
2018-04-12T12:34:41.167Z,53.90
2018-04-12T12:37:08.689Z,55.73
2018-04-12T12:39:36.179Z,53.73
2018-04-12T12:42:03.809Z,53.33
2018-04-12T12:44:31.309Z,54.07
2018-04-12T12:46:58.804Z,53.40
2018-04-12T12:49:26.296Z,54.57
2018-04-12T12:51:53.842Z,55.87
2018-04-12T12:54:22.120Z,53.13
2018-04-12T12:56:49.625Z,52.50
2018-04-12T12:59:17.150Z,51.87
2018-04-12T13:01:44.708Z,50.20
2018-04-12T13:04:12.224Z,54.57
2018-04-12T13:06:40.469Z,53.57
2018-04-12T13:09:07.958Z,51.07
2018-04-12T13:11:36.209Z,53.70
2018-04-12T13:14:04.417Z,51.10
2018-04-12T13:16:32.700Z,52.07
2018-04-12T13:19:00.982Z,52.17
2018-04-12T13:21:28.455Z,51.30
2018-04-12T13:23:55.981Z,51.10
2018-04-12T13:26:24.354Z,52.70
2018-04-12T13:28:51.939Z,50.20
2018-04-12T13:31:19.440Z,51.40
2018-04-12T13:33:46.952Z,50.43
2018-04-12T13:36:14.456Z,49.83
2018-04-12T13:38:41.973Z,50.60
2018-04-12T13:41:10.337Z,52.20
2018-04-12T13:43:37.807Z,50.47
2018-04-12T13:46:06.077Z,53.57
2018-04-12T13:48:34.327Z,49.57
2018-04-12T13:51:01.821Z,49.67
2018-04-12T13:53:30.085Z,53.50
2018-04-12T13:55:58.693Z,54.40
2018-04-12T13:58:26.200Z,49.77
2018-04-12T14:00:53.750Z,50.73
2018-04-12T14:03:21.250Z,54.90
2018-04-12T14:05:49.944Z,55.00
2018-04-12T14:08:18.312Z,52.80
2018-04-12T14:10:46.623Z,51.97
2018-04-12T14:13:14.153Z,53.53
2018-04-12T14:15:41.626Z,49.30
2018-04-12T14:18:09.149Z,49.70
2018-04-12T14:20:36.621Z,49.70
2018-04-12T14:23:04.110Z,48.80
2018-04-12T14:25:31.617Z,55.33
2018-04-12T14:27:59.135Z,50.43
2018-04-12T14:30:26.639Z,48.30
2018-04-12T14:32:54.123Z,46.83
2018-04-12T14:35:22.385Z,47.30
2018-04-12T14:37:49.866Z,47.10
2018-04-12T14:40:18.135Z,47.57
2018-04-12T14:42:46.386Z,45.80
2018-04-12T14:45:13.873Z,47.90
2018-04-12T14:47:42.118Z,45.70
2018-04-12T14:50:09.612Z,44.67
2018-04-12T14:52:37.969Z,44.87
2018-04-12T14:55:05.509Z,44.63
2018-04-12T14:57:32.999Z,42.70
2018-04-12T15:00:00.474Z,45.07
2018-04-12T15:02:28.733Z,43.23
2018-04-12T15:04:56.237Z,46.07
2018-04-12T15:07:23.777Z,41.00
2018-04-12T15:09:51.588Z,45.37
2018-04-12T15:12:19.346Z,42.83
2018-04-12T15:14:46.826Z,42.20
2018-04-12T15:17:14.330Z,42.30
2018-04-12T15:19:41.801Z,45.93
2018-04-12T15:22:09.284Z,43.23
2018-04-12T15:24:36.752Z,43.67
2018-04-12T15:27:04.272Z,41.97
2018-04-12T15:29:31.769Z,45.70
2018-04-12T15:31:59.273Z,40.40
2018-04-12T15:34:27.530Z,44.80
2018-04-12T15:36:55.065Z,41.20
2018-04-12T15:39:22.534Z,42.27
2018-04-12T15:41:50.024Z,41.83
2018-04-12T15:44:17.519Z,42.60
2018-04-12T15:46:44.986Z,40.93
2018-04-12T15:49:12.477Z,38.20
2018-04-12T15:51:39.960Z,40.30
2018-04-12T15:54:08.226Z,38.47
2018-04-12T15:56:35.765Z,37.00
2018-04-12T15:59:03.257Z,37.27
2018-04-12T16:01:31.533Z,32.37
2018-04-12T16:03:59.781Z,34.40
2018-04-12T16:06:28.477Z,32.30
2018-04-12T16:08:55.961Z,31.87
2018-04-12T16:11:24.241Z,31.57
2018-04-12T16:13:52.479Z,29.10
2018-04-12T16:16:22.736Z,26.03
2018-04-12T16:18:51.038Z,24.60
2018-04-12T16:21:18.533Z,24.17
2018-04-12T16:23:48.671Z,24.20
2018-04-12T16:26:16.211Z,22.70
2018-04-12T16:28:43.697Z,23.93
2018-04-12T16:31:11.980Z,22.97
2018-04-12T16:33:39.709Z,23.77
2018-04-12T16:36:07.192Z,24.83
2018-04-12T16:38:34.736Z,22.00
2018-04-12T16:41:02.209Z,23.50
2018-04-12T16:43:29.716Z,23.73
2018-04-12T16:45:57.314Z,24.37
2018-04-12T16:48:24.788Z,25.43
2018-04-12T16:50:52.278Z,24.93
2018-04-12T16:53:19.781Z,25.93
2018-04-12T16:55:47.282Z,27.20
2018-04-12T16:58:14.796Z,23.80
2018-04-12T17:00:42.295Z,24.03
2018-04-12T17:03:09.823Z,24.43
2018-04-12T17:05:37.338Z,25.80
2018-04-12T17:08:04.837Z,24.17
2018-04-12T17:10:32.371Z,22.30
2018-04-12T17:12:59.853Z,25.50
2018-04-12T17:15:28.182Z,22.90
2018-04-12T17:17:59.654Z,23.90
2018-04-12T17:20:27.250Z,22.93
2018-04-12T17:22:55.051Z,25.03
2018-04-12T17:25:23.315Z,22.40
2018-04-12T17:27:50.809Z,23.70
2018-04-12T17:30:18.284Z,24.50
2018-04-12T17:32:45.773Z,23.63
2018-04-12T17:35:13.301Z,23.90
2018-04-12T17:37:40.818Z,22.90
2018-04-12T17:40:09.211Z,23.50
2018-04-12T17:42:37.457Z,25.50
2018-04-12T17:45:04.951Z,24.80
2018-04-12T17:47:33.299Z,23.37
2018-04-12T17:50:00.773Z,24.63
2018-04-12T17:52:28.547Z,22.00
2018-04-12T17:54:56.843Z,22.50
2018-04-12T17:57:24.338Z,22.03
2018-04-12T17:59:51.876Z,21.93
2018-04-12T18:02:19.363Z,21.43
2018-04-12T18:04:46.985Z,20.23
2018-04-12T18:07:14.497Z,21.13
2018-04-12T18:09:42.007Z,21.77
2018-04-12T18:12:09.484Z,23.37
2018-04-12T18:14:37.019Z,21.77
2018-04-12T18:17:04.512Z,22.63
2018-04-12T18:19:32.020Z,19.90
2018-04-12T18:22:00.252Z,20.67
2018-04-12T18:24:27.737Z,21.30
2018-04-12T18:26:55.211Z,19.50
2018-04-12T18:29:22.693Z,21.33
2018-04-12T18:31:50.173Z,20.77
2018-04-12T18:34:17.641Z,19.73
2018-04-12T18:36:45.720Z,19.00
2018-04-12T18:39:13.175Z,20.63
2018-04-12T18:41:40.688Z,21.73
2018-04-12T18:44:08.940Z,19.90
2018-04-12T18:46:36.481Z,19.47
2018-04-12T18:49:03.976Z,20.80
2018-04-12T18:51:32.418Z,21.00
2018-04-12T18:53:59.985Z,22.30
2018-04-12T18:56:27.485Z,20.50
2018-04-12T18:58:55.854Z,19.90
2018-04-12T19:01:23.570Z,21.50
2018-04-12T19:03:51.082Z,21.70
2018-04-12T19:06:19.415Z,21.73
2018-04-12T19:08:48.476Z,20.23
2018-04-12T19:11:16.172Z,22.30
2018-04-12T19:13:44.409Z,22.30
2018-04-12T19:16:12.722Z,24.20
2018-04-12T19:18:40.226Z,22.80
2018-04-12T19:21:08.496Z,26.30
2018-04-12T19:23:36.771Z,24.10
2018-04-12T19:26:04.271Z,25.03
2018-04-12T19:28:32.806Z,23.07
2018-04-12T19:31:00.647Z,22.00
2018-04-12T19:33:28.432Z,23.20
2018-04-12T19:35:56.096Z,26.03
2018-04-12T19:38:23.626Z,24.57
2018-04-12T19:40:51.423Z,25.10
2018-04-12T19:43:19.442Z,25.43
2018-04-12T19:45:47.344Z,26.30
2018-04-12T19:48:15.173Z,26.60
2018-04-12T19:50:42.672Z,26.03
2018-04-12T19:53:10.178Z,27.53
2018-04-12T19:55:38.893Z,28.27
2018-04-12T19:58:06.547Z,26.83
2018-04-12T20:00:34.034Z,28.10
2018-04-12T20:03:01.497Z,29.13
2018-04-12T20:05:29.058Z,31.40
2018-04-12T20:07:56.610Z,28.47
2018-04-12T20:10:24.847Z,31.43
2018-04-12T20:12:53.079Z,31.23
2018-04-12T20:15:20.576Z,28.67
2018-04-12T20:17:48.833Z,31.77
2018-04-12T20:20:16.330Z,35.53
2018-04-12T20:22:44.633Z,40.33
2018-04-12T20:25:12.088Z,35.97
2018-04-12T20:27:39.728Z,33.03
2018-04-12T20:30:07.975Z,31.33
2018-04-12T20:32:35.501Z,31.50
2018-04-12T20:35:02.991Z,31.53
2018-04-12T20:37:31.252Z,31.60
2018-04-12T20:39:58.721Z,29.80
2018-04-12T20:42:26.213Z,31.13
2018-04-12T20:44:53.709Z,30.17
2018-04-12T20:47:21.202Z,32.17
2018-04-12T20:49:48.695Z,28.67
2018-04-12T20:52:16.182Z,32.07
2018-04-12T20:54:43.670Z,29.80
2018-04-12T20:57:11.142Z,28.80
2018-04-12T20:59:38.629Z,27.63
2018-04-12T21:02:06.116Z,28.43
2018-04-12T21:04:33.695Z,28.63
2018-04-12T21:07:01.197Z,27.67
2018-04-12T21:09:29.439Z,28.60
2018-04-12T21:11:56.972Z,30.50
2018-04-12T21:14:24.680Z,28.40
2018-04-12T21:16:52.096Z,29.13
2018-04-12T21:19:19.585Z,27.60
2018-04-12T21:21:47.059Z,27.73
2018-04-12T21:24:14.556Z,27.77
2018-04-12T21:26:42.031Z,28.83
2018-04-12T21:29:09.507Z,28.83
2018-04-12T21:31:37.761Z,26.70
2018-04-12T21:34:05.232Z,28.97
2018-04-12T21:36:32.701Z,26.43
2018-04-12T21:39:00.183Z,30.00
2018-04-12T21:41:27.664Z,27.13
2018-04-12T21:43:55.898Z,26.83
2018-04-12T21:46:23.467Z,27.60
2018-04-12T21:48:50.948Z,27.07
2018-04-12T21:51:18.469Z,28.27
2018-04-12T21:53:45.947Z,29.50
2018-04-12T21:56:13.510Z,29.40
2018-04-12T21:58:41.780Z,28.60
2018-04-12T22:01:09.257Z,28.60
2018-04-12T22:03:37.595Z,31.33
2018-04-12T22:06:05.087Z,30.70
2018-04-12T22:08:32.563Z,30.37
2018-04-12T22:11:00.816Z,32.17
2018-04-12T22:13:28.349Z,33.10
2018-04-12T22:15:55.825Z,33.47
2018-04-12T22:18:24.090Z,35.50
2018-04-12T22:20:51.588Z,36.53
2018-04-12T22:23:19.164Z,34.70
2018-04-12T22:25:46.633Z,38.73
2018-04-12T22:28:14.136Z,37.13
2018-04-12T22:30:41.648Z,35.83
2018-04-12T22:33:09.144Z,36.80
2018-04-12T22:35:36.617Z,39.40
2018-04-12T22:38:04.110Z,38.50
2018-04-12T22:40:32.340Z,39.00
2018-04-12T22:42:59.861Z,37.80
2018-04-12T22:45:27.321Z,37.60
2018-04-12T22:47:54.850Z,36.40
2018-04-12T22:50:22.369Z,34.87
2018-04-12T22:52:49.856Z,36.57
2018-04-12T22:55:17.343Z,32.77
2018-04-12T22:57:45.581Z,35.23
2018-04-12T23:00:13.060Z,35.87
2018-04-12T23:02:40.518Z,37.77
2018-04-12T23:05:08.026Z,37.10
2018-04-12T23:07:35.496Z,34.60
2018-04-12T23:10:02.970Z,39.40
2018-04-12T23:12:30.466Z,35.40
2018-04-12T23:14:58.876Z,31.00
2018-04-12T23:17:26.357Z,29.70
2018-04-12T23:19:53.840Z,28.97
2018-04-12T23:22:21.345Z,29.10
2018-04-12T23:24:48.823Z,28.60
2018-04-12T23:27:16.280Z,25.07
2018-04-12T23:29:43.766Z,21.73
2018-04-12T23:32:11.241Z,23.30
2018-04-12T23:34:38.778Z,22.77
2018-04-12T23:37:06.377Z,19.80
2018-04-12T23:39:33.868Z,19.07
2018-04-12T23:42:01.357Z,14.23
2018-04-12T23:44:28.875Z,15.90
2018-04-12T23:46:57.112Z,16.03
2018-04-12T23:49:24.633Z,12.17
2018-04-12T23:51:52.126Z,11.60
2018-04-12T23:54:19.621Z,12.10
2018-04-12T23:56:47.849Z,13.50
2018-04-12T23:59:15.337Z,11.90
